sensor_id;sensor_type;location;lat;lon;timestamp;P1;durP1;ratioP1;P2;durP2;ratioP2
66626;SDS011;53498;50.422;14.912;2023-03-23T00:01:08;15.73;;;9.00;;
66626;SDS011;53498;50.422;14.912;2023-03-23T00:03:44;11.57;;;8.50;;
66626;SDS011;53498;50.422;14.912;2023-03-23T00:06:12;13.50;;;9.18;;
66626;SDS011;53498;50.422;14.912;2023-03-23T00:08:42;12.02;;;9.02;;
66626;SDS011;53498;50.422;14.912;2023-03-23T00:11:17;11.52;;;8.70;;
66626;SDS011;53498;50.422;14.912;2023-03-23T00:13:45;13.88;;;8.68;;
66626;SDS011;53498;50.422;14.912;2023-03-23T00:16:12;11.82;;;8.55;;
66626;SDS011;53498;50.422;14.912;2023-03-23T00:19:03;12.82;;;8.52;;
66626;SDS011;53498;50.422;14.912;2023-03-23T00:21:35;13.13;;;9.05;;
66626;SDS011;53498;50.422;14.912;2023-03-23T00:24:16;14.77;;;9.57;;
66626;SDS011;53498;50.422;14.912;2023-03-23T00:26:43;14.13;;;9.00;;
66626;SDS011;53498;50.422;14.912;2023-03-23T00:29:14;15.23;;;9.57;;
66626;SDS011;53498;50.422;14.912;2023-03-23T00:31:43;14.82;;;9.30;;
66626;SDS011;53498;50.422;14.912;2023-03-23T00:34:12;15.77;;;9.48;;
66626;SDS011;53498;50.422;14.912;2023-03-23T00:36:46;13.18;;;9.80;;
66626;SDS011;53498;50.422;14.912;2023-03-23T00:39:13;14.15;;;9.25;;
66626;SDS011;53498;50.422;14.912;2023-03-23T00:41:45;15.05;;;9.95;;
66626;SDS011;53498;50.422;14.912;2023-03-23T00:44:14;17.63;;;10.05;;
66626;SDS011;53498;50.422;14.912;2023-03-23T00:46:42;12.82;;;8.75;;
66626;SDS011;53498;50.422;14.912;2023-03-23T00:49:13;15.13;;;9.65;;
66626;SDS011;53498;50.422;14.912;2023-03-23T00:51:40;14.40;;;10.15;;
66626;SDS011;53498;50.422;14.912;2023-03-23T00:54:07;13.93;;;9.30;;
66626;SDS011;53498;50.422;14.912;2023-03-23T00:56:34;17.50;;;9.35;;
66626;SDS011;53498;50.422;14.912;2023-03-23T00:59:00;12.82;;;8.65;;
66626;SDS011;53498;50.422;14.912;2023-03-23T01:01:26;12.80;;;9.15;;
66626;SDS011;53498;50.422;14.912;2023-03-23T01:03:52;13.32;;;9.40;;
66626;SDS011;53498;50.422;14.912;2023-03-23T01:06:29;15.63;;;9.85;;
66626;SDS011;53498;50.422;14.912;2023-03-23T01:09:01;13.63;;;9.77;;
66626;SDS011;53498;50.422;14.912;2023-03-23T01:11:32;13.43;;;8.88;;
66626;SDS011;53498;50.422;14.912;2023-03-23T01:13:57;15.77;;;10.20;;
66626;SDS011;53498;50.422;14.912;2023-03-23T01:16:23;15.73;;;9.93;;
66626;SDS011;53498;50.422;14.912;2023-03-23T01:18:49;16.05;;;10.15;;
66626;SDS011;53498;50.422;14.912;2023-03-23T01:21:16;16.77;;;9.68;;
66626;SDS011;53498;50.422;14.912;2023-03-23T01:23:43;15.25;;;10.02;;
66626;SDS011;53498;50.422;14.912;2023-03-23T01:26:11;16.38;;;10.32;;
66626;SDS011;53498;50.422;14.912;2023-03-23T01:28:42;15.23;;;10.82;;
66626;SDS011;53498;50.422;14.912;2023-03-23T01:31:09;15.00;;;10.15;;
66626;SDS011;53498;50.422;14.912;2023-03-23T01:33:37;15.48;;;10.57;;
66626;SDS011;53498;50.422;14.912;2023-03-23T01:36:04;15.00;;;9.95;;
66626;SDS011;53498;50.422;14.912;2023-03-23T01:38:32;14.55;;;10.27;;
66626;SDS011;53498;50.422;14.912;2023-03-23T01:40:58;15.98;;;10.25;;
66626;SDS011;53498;50.422;14.912;2023-03-23T01:43:24;15.00;;;10.05;;
66626;SDS011;53498;50.422;14.912;2023-03-23T01:45:50;18.38;;;10.15;;
66626;SDS011;53498;50.422;14.912;2023-03-23T01:48:20;18.02;;;10.25;;
66626;SDS011;53498;50.422;14.912;2023-03-23T01:50:50;13.13;;;9.95;;
66626;SDS011;53498;50.422;14.912;2023-03-23T01:53:38;14.10;;;9.80;;
66626;SDS011;53498;50.422;14.912;2023-03-23T01:56:14;15.82;;;10.50;;
66626;SDS011;53498;50.422;14.912;2023-03-23T01:58:44;13.80;;;9.93;;
66626;SDS011;53498;50.422;14.912;2023-03-23T02:01:11;14.07;;;10.75;;
66626;SDS011;53498;50.422;14.912;2023-03-23T02:03:41;15.57;;;10.70;;
66626;SDS011;53498;50.422;14.912;2023-03-23T02:06:09;19.38;;;11.57;;
66626;SDS011;53498;50.422;14.912;2023-03-23T02:08:35;19.13;;;10.75;;
66626;SDS011;53498;50.422;14.912;2023-03-23T02:11:08;20.40;;;10.75;;
66626;SDS011;53498;50.422;14.912;2023-03-23T02:13:37;16.05;;;12.15;;
66626;SDS011;53498;50.422;14.912;2023-03-23T02:16:08;17.77;;;13.88;;
66626;SDS011;53498;50.422;14.912;2023-03-23T02:26:47;24.33;;;17.50;;
66626;SDS011;53498;50.422;14.912;2023-03-23T02:35:08;23.13;;;17.77;;
66626;SDS011;53498;50.422;14.912;2023-03-23T02:37:57;21.63;;;17.08;;
66626;SDS011;53498;50.422;14.912;2023-03-23T02:40:33;22.65;;;14.30;;
66626;SDS011;53498;50.422;14.912;2023-03-23T02:43:04;19.35;;;14.07;;
66626;SDS011;53498;50.422;14.912;2023-03-23T02:45:34;23.95;;;14.77;;
66626;SDS011;53498;50.422;14.912;2023-03-23T02:48:03;26.08;;;13.70;;
66626;SDS011;53498;50.422;14.912;2023-03-23T02:50:30;21.00;;;14.02;;
66626;SDS011;53498;50.422;14.912;2023-03-23T02:52:58;21.38;;;13.40;;
66626;SDS011;53498;50.422;14.912;2023-03-23T02:55:25;17.13;;;13.20;;
66626;SDS011;53498;50.422;14.912;2023-03-23T02:57:54;18.67;;;13.13;;
66626;SDS011;53498;50.422;14.912;2023-03-23T03:00:20;23.50;;;14.75;;
66626;SDS011;53498;50.422;14.912;2023-03-23T03:02:47;18.75;;;13.75;;
66626;SDS011;53498;50.422;14.912;2023-03-23T03:08:50;20.70;;;13.00;;
66626;SDS011;53498;50.422;14.912;2023-03-23T03:11:19;17.10;;;11.63;;
66626;SDS011;53498;50.422;14.912;2023-03-23T03:19:35;16.70;;;11.30;;
66626;SDS011;53498;50.422;14.912;2023-03-23T03:22:05;18.25;;;12.18;;
66626;SDS011;53498;50.422;14.912;2023-03-23T03:24:33;25.88;;;13.43;;
66626;SDS011;53498;50.422;14.912;2023-03-23T03:26:59;23.58;;;14.55;;
66626;SDS011;53498;50.422;14.912;2023-03-23T03:29:30;22.83;;;13.50;;
66626;SDS011;53498;50.422;14.912;2023-03-23T03:31:59;21.75;;;13.55;;
66626;SDS011;53498;50.422;14.912;2023-03-23T03:34:30;20.35;;;13.70;;
66626;SDS011;53498;50.422;14.912;2023-03-23T03:37:00;22.17;;;13.48;;
66626;SDS011;53498;50.422;14.912;2023-03-23T03:39:26;22.45;;;13.18;;
66626;SDS011;53498;50.422;14.912;2023-03-23T03:41:52;21.70;;;13.00;;
66626;SDS011;53498;50.422;14.912;2023-03-23T03:44:20;20.73;;;13.32;;
66626;SDS011;53498;50.422;14.912;2023-03-23T03:46:45;24.23;;;13.48;;
66626;SDS011;53498;50.422;14.912;2023-03-23T03:49:11;20.52;;;11.85;;
66626;SDS011;53498;50.422;14.912;2023-03-23T03:51:38;19.60;;;11.55;;
66626;SDS011;53498;50.422;14.912;2023-03-23T03:54:04;15.82;;;11.30;;
66626;SDS011;53498;50.422;14.912;2023-03-23T03:56:30;16.33;;;11.23;;
66626;SDS011;53498;50.422;14.912;2023-03-23T03:58:58;19.67;;;11.35;;
66626;SDS011;53498;50.422;14.912;2023-03-23T04:01:24;19.00;;;11.73;;
66626;SDS011;53498;50.422;14.912;2023-03-23T04:03:50;18.10;;;10.85;;
66626;SDS011;53498;50.422;14.912;2023-03-23T04:06:16;20.63;;;11.95;;
66626;SDS011;53498;50.422;14.912;2023-03-23T04:08:43;20.70;;;12.50;;
66626;SDS011;53498;50.422;14.912;2023-03-23T04:11:13;19.45;;;12.38;;
66626;SDS011;53498;50.422;14.912;2023-03-23T04:13:40;20.00;;;13.10;;
66626;SDS011;53498;50.422;14.912;2023-03-23T04:16:06;20.88;;;12.18;;
66626;SDS011;53498;50.422;14.912;2023-03-23T04:18:32;20.42;;;12.18;;
66626;SDS011;53498;50.422;14.912;2023-03-23T04:20:59;21.23;;;12.75;;
66626;SDS011;53498;50.422;14.912;2023-03-23T04:23:27;16.85;;;10.95;;
66626;SDS011;53498;50.422;14.912;2023-03-23T04:25:55;17.52;;;10.93;;
66626;SDS011;53498;50.422;14.912;2023-03-23T04:28:23;20.88;;;10.95;;
66626;SDS011;53498;50.422;14.912;2023-03-23T04:30:49;20.40;;;11.40;;
66626;SDS011;53498;50.422;14.912;2023-03-23T04:33:29;16.48;;;10.52;;
66626;SDS011;53498;50.422;14.912;2023-03-23T04:35:56;17.20;;;10.10;;
66626;SDS011;53498;50.422;14.912;2023-03-23T04:38:26;16.38;;;10.63;;
66626;SDS011;53498;50.422;14.912;2023-03-23T04:40:52;19.65;;;10.95;;
66626;SDS011;53498;50.422;14.912;2023-03-23T04:43:19;21.05;;;11.32;;
66626;SDS011;53498;50.422;14.912;2023-03-23T04:45:53;21.13;;;11.90;;
66626;SDS011;53498;50.422;14.912;2023-03-23T04:48:27;13.88;;;10.68;;
66626;SDS011;53498;50.422;14.912;2023-03-23T04:50:55;20.25;;;11.20;;
66626;SDS011;53498;50.422;14.912;2023-03-23T04:53:21;19.27;;;10.93;;
66626;SDS011;53498;50.422;14.912;2023-03-23T04:55:46;17.05;;;11.55;;
66626;SDS011;53498;50.422;14.912;2023-03-23T04:58:14;19.77;;;11.75;;
66626;SDS011;53498;50.422;14.912;2023-03-23T05:00:41;19.40;;;10.93;;
66626;SDS011;53498;50.422;14.912;2023-03-23T05:03:11;16.65;;;10.82;;
66626;SDS011;53498;50.422;14.912;2023-03-23T05:05:41;21.08;;;11.27;;
66626;SDS011;53498;50.422;14.912;2023-03-23T05:08:07;16.75;;;10.70;;
66626;SDS011;53498;50.422;14.912;2023-03-23T05:10:33;17.98;;;11.35;;
66626;SDS011;53498;50.422;14.912;2023-03-23T05:12:58;17.00;;;10.82;;
66626;SDS011;53498;50.422;14.912;2023-03-23T05:15:24;15.55;;;10.25;;
66626;SDS011;53498;50.422;14.912;2023-03-23T05:17:53;17.85;;;11.35;;
66626;SDS011;53498;50.422;14.912;2023-03-23T05:20:18;18.08;;;10.68;;
66626;SDS011;53498;50.422;14.912;2023-03-23T05:22:45;22.85;;;11.25;;
66626;SDS011;53498;50.422;14.912;2023-03-23T05:25:14;19.27;;;11.70;;
66626;SDS011;53498;50.422;14.912;2023-03-23T05:27:44;18.75;;;11.65;;
66626;SDS011;53498;50.422;14.912;2023-03-23T05:30:14;18.88;;;11.68;;
66626;SDS011;53498;50.422;14.912;2023-03-23T05:32:44;21.05;;;12.38;;
66626;SDS011;53498;50.422;14.912;2023-03-23T05:35:10;17.58;;;11.50;;
66626;SDS011;53498;50.422;14.912;2023-03-23T05:37:37;17.92;;;12.57;;
66626;SDS011;53498;50.422;14.912;2023-03-23T05:40:04;24.27;;;12.93;;
66626;SDS011;53498;50.422;14.912;2023-03-23T05:42:35;19.58;;;11.88;;
66626;SDS011;53498;50.422;14.912;2023-03-23T05:45:02;19.33;;;10.98;;
66626;SDS011;53498;50.422;14.912;2023-03-23T05:47:29;14.32;;;11.57;;
66626;SDS011;53498;50.422;14.912;2023-03-23T05:49:55;17.98;;;11.73;;
66626;SDS011;53498;50.422;14.912;2023-03-23T05:52:22;18.58;;;13.48;;
66626;SDS011;53498;50.422;14.912;2023-03-23T05:54:49;18.85;;;11.38;;
66626;SDS011;53498;50.422;14.912;2023-03-23T05:57:15;18.92;;;12.13;;
66626;SDS011;53498;50.422;14.912;2023-03-23T05:59:40;21.90;;;12.85;;
66626;SDS011;53498;50.422;14.912;2023-03-23T06:02:06;18.27;;;11.88;;
66626;SDS011;53498;50.422;14.912;2023-03-23T06:04:32;18.95;;;12.60;;
66626;SDS011;53498;50.422;14.912;2023-03-23T06:07:00;16.58;;;11.52;;
66626;SDS011;53498;50.422;14.912;2023-03-23T06:09:27;18.23;;;11.90;;
66626;SDS011;53498;50.422;14.912;2023-03-23T06:11:53;18.38;;;11.52;;
66626;SDS011;53498;50.422;14.912;2023-03-23T06:14:18;19.77;;;10.88;;
66626;SDS011;53498;50.422;14.912;2023-03-23T06:16:44;17.25;;;10.55;;
66626;SDS011;53498;50.422;14.912;2023-03-23T06:19:09;17.30;;;10.18;;
66626;SDS011;53498;50.422;14.912;2023-03-23T06:21:36;16.50;;;9.85;;
66626;SDS011;53498;50.422;14.912;2023-03-23T06:24:05;18.27;;;10.93;;
66626;SDS011;53498;50.422;14.912;2023-03-23T06:26:33;14.93;;;10.27;;
66626;SDS011;53498;50.422;14.912;2023-03-23T06:29:00;12.95;;;8.82;;
66626;SDS011;53498;50.422;14.912;2023-03-23T06:31:26;11.35;;;7.55;;
66626;SDS011;53498;50.422;14.912;2023-03-23T06:33:52;11.50;;;7.38;;
66626;SDS011;53498;50.422;14.912;2023-03-23T06:36:18;12.23;;;6.57;;
66626;SDS011;53498;50.422;14.912;2023-03-23T06:38:44;10.52;;;6.60;;
66626;SDS011;53498;50.422;14.912;2023-03-23T06:41:10;8.88;;;6.50;;
66626;SDS011;53498;50.422;14.912;2023-03-23T06:43:36;10.45;;;6.97;;
66626;SDS011;53498;50.422;14.912;2023-03-23T06:46:05;9.23;;;6.47;;
66626;SDS011;53498;50.422;14.912;2023-03-23T06:48:31;8.20;;;6.47;;
66626;SDS011;53498;50.422;14.912;2023-03-23T06:50:57;9.95;;;6.88;;
66626;SDS011;53498;50.422;14.912;2023-03-23T06:53:23;10.75;;;7.53;;
66626;SDS011;53498;50.422;14.912;2023-03-23T06:55:49;9.25;;;6.95;;
66626;SDS011;53498;50.422;14.912;2023-03-23T06:58:15;10.40;;;5.85;;
66626;SDS011;53498;50.422;14.912;2023-03-23T07:00:41;10.27;;;6.50;;
66626;SDS011;53498;50.422;14.912;2023-03-23T07:03:08;8.07;;;5.75;;
66626;SDS011;53498;50.422;14.912;2023-03-23T07:05:34;10.02;;;6.28;;
66626;SDS011;53498;50.422;14.912;2023-03-23T07:08:03;7.25;;;6.00;;
66626;SDS011;53498;50.422;14.912;2023-03-23T07:10:30;9.55;;;7.10;;
66626;SDS011;53498;50.422;14.912;2023-03-23T07:12:56;9.20;;;6.28;;
66626;SDS011;53498;50.422;14.912;2023-03-23T07:15:22;10.68;;;6.43;;
66626;SDS011;53498;50.422;14.912;2023-03-23T07:17:51;10.55;;;6.30;;
66626;SDS011;53498;50.422;14.912;2023-03-23T07:20:17;8.13;;;6.00;;
66626;SDS011;53498;50.422;14.912;2023-03-23T07:22:42;9.13;;;6.78;;
66626;SDS011;53498;50.422;14.912;2023-03-23T07:25:08;11.10;;;6.53;;
66626;SDS011;53498;50.422;14.912;2023-03-23T07:27:35;10.63;;;6.35;;
66626;SDS011;53498;50.422;14.912;2023-03-23T07:30:01;7.57;;;5.63;;
66626;SDS011;53498;50.422;14.912;2023-03-23T07:32:32;9.70;;;6.97;;
66626;SDS011;53498;50.422;14.912;2023-03-23T07:34:58;8.90;;;5.45;;
66626;SDS011;53498;50.422;14.912;2023-03-23T07:37:23;10.93;;;5.90;;
66626;SDS011;53498;50.422;14.912;2023-03-23T07:39:49;6.60;;;5.82;;
66626;SDS011;53498;50.422;14.912;2023-03-23T07:42:15;10.18;;;5.03;;
66626;SDS011;53498;50.422;14.912;2023-03-23T07:44:40;6.88;;;5.68;;
66626;SDS011;53498;50.422;14.912;2023-03-23T07:47:06;8.40;;;5.63;;
66626;SDS011;53498;50.422;14.912;2023-03-23T07:49:32;8.07;;;5.15;;
66626;SDS011;53498;50.422;14.912;2023-03-23T07:51:58;9.75;;;6.55;;
66626;SDS011;53498;50.422;14.912;2023-03-23T07:54:28;6.88;;;5.65;;
66626;SDS011;53498;50.422;14.912;2023-03-23T07:56:54;9.93;;;6.47;;
66626;SDS011;53498;50.422;14.912;2023-03-23T07:59:19;10.23;;;6.63;;
66626;SDS011;53498;50.422;14.912;2023-03-23T08:01:45;9.80;;;6.38;;
66626;SDS011;53498;50.422;14.912;2023-03-23T08:04:11;8.88;;;6.07;;
66626;SDS011;53498;50.422;14.912;2023-03-23T08:06:38;9.23;;;6.00;;
66626;SDS011;53498;50.422;14.912;2023-03-23T08:09:05;6.28;;;5.20;;
66626;SDS011;53498;50.422;14.912;2023-03-23T08:11:38;7.82;;;5.80;;
66626;SDS011;53498;50.422;14.912;2023-03-23T08:14:04;7.20;;;5.70;;
66626;SDS011;53498;50.422;14.912;2023-03-23T08:16:30;8.60;;;5.93;;
66626;SDS011;53498;50.422;14.912;2023-03-23T08:18:57;9.50;;;5.88;;
66626;SDS011;53498;50.422;14.912;2023-03-23T08:21:23;11.00;;;5.75;;
66626;SDS011;53498;50.422;14.912;2023-03-23T08:23:49;7.57;;;5.20;;
66626;SDS011;53498;50.422;14.912;2023-03-23T08:26:15;7.18;;;4.75;;
66626;SDS011;53498;50.422;14.912;2023-03-23T08:28:42;7.57;;;5.28;;
66626;SDS011;53498;50.422;14.912;2023-03-23T08:31:10;7.20;;;4.93;;
66626;SDS011;53498;50.422;14.912;2023-03-23T08:33:37;7.32;;;5.10;;
66626;SDS011;53498;50.422;14.912;2023-03-23T08:36:04;5.80;;;4.70;;
66626;SDS011;53498;50.422;14.912;2023-03-23T08:38:30;8.55;;;5.00;;
66626;SDS011;53498;50.422;14.912;2023-03-23T08:41:00;5.88;;;4.35;;
66626;SDS011;53498;50.422;14.912;2023-03-23T08:43:28;6.53;;;4.13;;
66626;SDS011;53498;50.422;14.912;2023-03-23T08:45:53;7.90;;;4.47;;
66626;SDS011;53498;50.422;14.912;2023-03-23T08:48:20;6.47;;;4.07;;
66626;SDS011;53498;50.422;14.912;2023-03-23T08:50:46;7.80;;;3.92;;
66626;SDS011;53498;50.422;14.912;2023-03-23T08:53:12;5.78;;;3.78;;
66626;SDS011;53498;50.422;14.912;2023-03-23T08:55:38;8.38;;;3.30;;
66626;SDS011;53498;50.422;14.912;2023-03-23T08:58:05;7.75;;;3.67;;
66626;SDS011;53498;50.422;14.912;2023-03-23T09:00:30;9.27;;;3.95;;
66626;SDS011;53498;50.422;14.912;2023-03-23T09:02:57;5.50;;;4.15;;
66626;SDS011;53498;50.422;14.912;2023-03-23T09:05:24;8.02;;;4.03;;
66626;SDS011;53498;50.422;14.912;2023-03-23T09:07:53;5.30;;;4.35;;
66626;SDS011;53498;50.422;14.912;2023-03-23T09:10:20;7.32;;;4.00;;
66626;SDS011;53498;50.422;14.912;2023-03-23T09:12:47;6.97;;;3.80;;
66626;SDS011;53498;50.422;14.912;2023-03-23T09:15:14;6.78;;;4.32;;
66626;SDS011;53498;50.422;14.912;2023-03-23T09:17:47;7.15;;;3.88;;
66626;SDS011;53498;50.422;14.912;2023-03-23T09:20:16;6.20;;;3.85;;
66626;SDS011;53498;50.422;14.912;2023-03-23T09:22:45;4.90;;;3.08;;
66626;SDS011;53498;50.422;14.912;2023-03-23T09:25:13;5.35;;;3.38;;
66626;SDS011;53498;50.422;14.912;2023-03-23T09:27:41;4.25;;;3.58;;
66626;SDS011;53498;50.422;14.912;2023-03-23T09:30:19;6.18;;;2.90;;
66626;SDS011;53498;50.422;14.912;2023-03-23T09:32:46;6.50;;;3.60;;
66626;SDS011;53498;50.422;14.912;2023-03-23T09:35:13;4.47;;;3.00;;
66626;SDS011;53498;50.422;14.912;2023-03-23T09:37:47;4.45;;;3.42;;
66626;SDS011;53498;50.422;14.912;2023-03-23T09:40:26;4.35;;;3.63;;
66626;SDS011;53498;50.422;14.912;2023-03-23T09:48:54;4.78;;;2.72;;
66626;SDS011;53498;50.422;14.912;2023-03-23T09:51:28;4.35;;;2.80;;
66626;SDS011;53498;50.422;14.912;2023-03-23T09:54:27;5.05;;;2.95;;
66626;SDS011;53498;50.422;14.912;2023-03-23T09:56:53;4.07;;;2.13;;
66626;SDS011;53498;50.422;14.912;2023-03-23T10:02:40;4.78;;;2.28;;
66626;SDS011;53498;50.422;14.912;2023-03-23T10:07:57;6.35;;;5.72;;
66626;SDS011;53498;50.422;14.912;2023-03-23T10:16:20;4.30;;;2.75;;
66626;SDS011;53498;50.422;14.912;2023-03-23T10:21:35;1.90;;;1.70;;
66626;SDS011;53498;50.422;14.912;2023-03-23T10:24:09;6.15;;;2.20;;
66626;SDS011;53498;50.422;14.912;2023-03-23T10:26:48;2.63;;;1.70;;
66626;SDS011;53498;50.422;14.912;2023-03-23T10:29:40;4.75;;;2.45;;
66626;SDS011;53498;50.422;14.912;2023-03-23T10:32:13;3.67;;;2.80;;
66626;SDS011;53498;50.422;14.912;2023-03-23T10:34:57;5.40;;;2.38;;
66626;SDS011;53498;50.422;14.912;2023-03-23T10:37:32;4.50;;;2.30;;
66626;SDS011;53498;50.422;14.912;2023-03-23T10:40:03;4.15;;;2.25;;
66626;SDS011;53498;50.422;14.912;2023-03-23T10:42:36;3.78;;;1.92;;
66626;SDS011;53498;50.422;14.912;2023-03-23T10:47:55;2.20;;;1.60;;
66626;SDS011;53498;50.422;14.912;2023-03-23T10:50:31;2.75;;;1.67;;
66626;SDS011;53498;50.422;14.912;2023-03-23T10:53:03;4.88;;;1.98;;
66626;SDS011;53498;50.422;14.912;2023-03-23T10:55:41;2.92;;;1.40;;
66626;SDS011;53498;50.422;14.912;2023-03-23T10:58:10;1.90;;;1.35;;
66626;SDS011;53498;50.422;14.912;2023-03-23T11:00:45;2.58;;;1.20;;
66626;SDS011;53498;50.422;14.912;2023-03-23T11:05:43;2.78;;;1.60;;
66626;SDS011;53498;50.422;14.912;2023-03-23T11:08:25;2.28;;;1.33;;
66626;SDS011;53498;50.422;14.912;2023-03-23T11:10:55;4.07;;;1.67;;
66626;SDS011;53498;50.422;14.912;2023-03-23T11:13:27;2.33;;;1.88;;
66626;SDS011;53498;50.422;14.912;2023-03-23T11:15:55;2.85;;;1.60;;
66626;SDS011;53498;50.422;14.912;2023-03-23T11:18:22;2.30;;;1.40;;
66626;SDS011;53498;50.422;14.912;2023-03-23T11:21:01;2.47;;;1.30;;
66626;SDS011;53498;50.422;14.912;2023-03-23T11:23:35;3.75;;;1.65;;
66626;SDS011;53498;50.422;14.912;2023-03-23T11:26:14;1.40;;;1.20;;
66626;SDS011;53498;50.422;14.912;2023-03-23T11:28:44;3.33;;;1.25;;
66626;SDS011;53498;50.422;14.912;2023-03-23T11:31:16;3.13;;;1.52;;
66626;SDS011;53498;50.422;14.912;2023-03-23T11:33:49;3.92;;;1.60;;
66626;SDS011;53498;50.422;14.912;2023-03-23T11:36:18;3.70;;;1.48;;
66626;SDS011;53498;50.422;14.912;2023-03-23T11:38:45;4.07;;;1.70;;
66626;SDS011;53498;50.422;14.912;2023-03-23T11:41:11;3.47;;;1.30;;
66626;SDS011;53498;50.422;14.912;2023-03-23T11:43:43;2.45;;;1.70;;
66626;SDS011;53498;50.422;14.912;2023-03-23T11:46:14;2.85;;;1.83;;
66626;SDS011;53498;50.422;14.912;2023-03-23T11:48:59;2.90;;;1.30;;
66626;SDS011;53498;50.422;14.912;2023-03-23T11:56:41;1.63;;;1.40;;
66626;SDS011;53498;50.422;14.912;2023-03-23T11:59:16;3.63;;;1.50;;
66626;SDS011;53498;50.422;14.912;2023-03-23T12:01:47;1.80;;;1.50;;
66626;SDS011;53498;50.422;14.912;2023-03-23T12:10:12;3.13;;;1.60;;
66626;SDS011;53498;50.422;14.912;2023-03-23T12:15:20;3.40;;;1.60;;
66626;SDS011;53498;50.422;14.912;2023-03-23T12:23:23;3.38;;;1.58;;
66626;SDS011;53498;50.422;14.912;2023-03-23T12:36:43;1.92;;;1.30;;
66626;SDS011;53498;50.422;14.912;2023-03-23T12:47:40;3.15;;;2.40;;
66626;SDS011;53498;50.422;14.912;2023-03-23T12:50:18;4.18;;;1.98;;
66626;SDS011;53498;50.422;14.912;2023-03-23T12:52:50;2.88;;;1.70;;
66626;SDS011;53498;50.422;14.912;2023-03-23T13:01:06;2.42;;;1.73;;
66626;SDS011;53498;50.422;14.912;2023-03-23T13:03:40;2.17;;;1.98;;
66626;SDS011;53498;50.422;14.912;2023-03-23T13:08:48;3.70;;;2.47;;
66626;SDS011;53498;50.422;14.912;2023-03-23T13:11:20;2.58;;;1.65;;
66626;SDS011;53498;50.422;14.912;2023-03-23T13:13:54;3.15;;;2.22;;
66626;SDS011;53498;50.422;14.912;2023-03-23T13:18:58;3.15;;;2.20;;
66626;SDS011;53498;50.422;14.912;2023-03-23T13:21:31;4.38;;;1.77;;
66626;SDS011;53498;50.422;14.912;2023-03-23T13:24:04;2.58;;;2.00;;
66626;SDS011;53498;50.422;14.912;2023-03-23T13:26:37;4.07;;;2.00;;
66626;SDS011;53498;50.422;14.912;2023-03-23T13:29:14;2.03;;;1.70;;
66626;SDS011;53498;50.422;14.912;2023-03-23T13:31:47;3.35;;;2.13;;
66626;SDS011;53498;50.422;14.912;2023-03-23T13:34:19;2.88;;;1.80;;
66626;SDS011;53498;50.422;14.912;2023-03-23T13:39:36;4.28;;;2.22;;
66626;SDS011;53498;50.422;14.912;2023-03-23T13:44:42;3.90;;;3.08;;
66626;SDS011;53498;50.422;14.912;2023-03-23T13:49:55;5.03;;;2.33;;
66626;SDS011;53498;50.422;14.912;2023-03-23T13:55:17;3.05;;;1.88;;
66626;SDS011;53498;50.422;14.912;2023-03-23T13:57:53;3.47;;;2.03;;
66626;SDS011;53498;50.422;14.912;2023-03-23T14:05:42;1.85;;;1.35;;
66626;SDS011;53498;50.422;14.912;2023-03-23T14:10:37;5.13;;;2.72;;
66626;SDS011;53498;50.422;14.912;2023-03-23T14:13:42;3.92;;;1.95;;
66626;SDS011;53498;50.422;14.912;2023-03-23T14:16:22;2.35;;;1.70;;
66626;SDS011;53498;50.422;14.912;2023-03-23T14:18:59;3.25;;;1.85;;
66626;SDS011;53498;50.422;14.912;2023-03-23T14:21:34;3.50;;;2.00;;
66626;SDS011;53498;50.422;14.912;2023-03-23T14:26:48;3.57;;;2.43;;
66626;SDS011;53498;50.422;14.912;2023-03-23T14:29:17;3.92;;;2.60;;
66626;SDS011;53498;50.422;14.912;2023-03-23T14:31:43;3.67;;;2.47;;
66626;SDS011;53498;50.422;14.912;2023-03-23T14:34:17;6.03;;;2.53;;
66626;SDS011;53498;50.422;14.912;2023-03-23T14:36:45;3.70;;;1.95;;
66626;SDS011;53498;50.422;14.912;2023-03-23T14:41:37;4.20;;;2.13;;
66626;SDS011;53498;50.422;14.912;2023-03-23T14:44:05;2.28;;;2.03;;
66626;SDS011;53498;50.422;14.912;2023-03-23T14:46:34;2.10;;;1.90;;
66626;SDS011;53498;50.422;14.912;2023-03-23T14:49:04;3.08;;;1.95;;
66626;SDS011;53498;50.422;14.912;2023-03-23T14:51:31;2.83;;;1.80;;
66626;SDS011;53498;50.422;14.912;2023-03-23T14:53:59;3.63;;;2.00;;
66626;SDS011;53498;50.422;14.912;2023-03-23T14:56:35;3.13;;;1.85;;
66626;SDS011;53498;50.422;14.912;2023-03-23T14:59:05;2.70;;;1.85;;
66626;SDS011;53498;50.422;14.912;2023-03-23T15:01:34;2.80;;;2.08;;
66626;SDS011;53498;50.422;14.912;2023-03-23T15:04:06;4.82;;;2.03;;
66626;SDS011;53498;50.422;14.912;2023-03-23T15:06:37;3.20;;;1.90;;
66626;SDS011;53498;50.422;14.912;2023-03-23T15:09:07;5.85;;;2.05;;
66626;SDS011;53498;50.422;14.912;2023-03-23T15:11:39;4.70;;;2.10;;
66626;SDS011;53498;50.422;14.912;2023-03-23T15:16:47;5.32;;;2.38;;
66626;SDS011;53498;50.422;14.912;2023-03-23T15:19:33;2.08;;;1.80;;
66626;SDS011;53498;50.422;14.912;2023-03-23T15:22:06;4.18;;;2.25;;
66626;SDS011;53498;50.422;14.912;2023-03-23T15:24:52;2.78;;;1.90;;
66626;SDS011;53498;50.422;14.912;2023-03-23T15:27:28;2.60;;;1.98;;
66626;SDS011;53498;50.422;14.912;2023-03-23T15:29:56;3.75;;;1.88;;
66626;SDS011;53498;50.422;14.912;2023-03-23T15:32:29;3.17;;;2.58;;
66626;SDS011;53498;50.422;14.912;2023-03-23T15:34:56;4.68;;;2.58;;
66626;SDS011;53498;50.422;14.912;2023-03-23T15:37:28;5.38;;;2.70;;
66626;SDS011;53498;50.422;14.912;2023-03-23T15:39:57;5.78;;;2.70;;
66626;SDS011;53498;50.422;14.912;2023-03-23T15:42:27;3.72;;;2.70;;
66626;SDS011;53498;50.422;14.912;2023-03-23T15:45:02;4.72;;;2.50;;
66626;SDS011;53498;50.422;14.912;2023-03-23T15:50:11;5.40;;;2.47;;
66626;SDS011;53498;50.422;14.912;2023-03-23T15:52:38;4.90;;;2.22;;
66626;SDS011;53498;50.422;14.912;2023-03-23T15:55:16;2.28;;;2.08;;
66626;SDS011;53498;50.422;14.912;2023-03-23T15:57:51;4.45;;;2.33;;
66626;SDS011;53498;50.422;14.912;2023-03-23T16:00:19;3.15;;;2.28;;
66626;SDS011;53498;50.422;14.912;2023-03-23T16:02:46;2.85;;;2.47;;
66626;SDS011;53498;50.422;14.912;2023-03-23T16:05:15;4.13;;;2.50;;
66626;SDS011;53498;50.422;14.912;2023-03-23T16:07:41;4.43;;;2.67;;
66626;SDS011;53498;50.422;14.912;2023-03-23T16:10:07;4.47;;;2.40;;
66626;SDS011;53498;50.422;14.912;2023-03-23T16:12:40;3.63;;;2.30;;
66626;SDS011;53498;50.422;14.912;2023-03-23T16:15:06;3.33;;;2.65;;
66626;SDS011;53498;50.422;14.912;2023-03-23T16:17:33;5.97;;;2.35;;
66626;SDS011;53498;50.422;14.912;2023-03-23T16:19:59;4.82;;;2.25;;
66626;SDS011;53498;50.422;14.912;2023-03-23T16:22:26;4.35;;;2.70;;
66626;SDS011;53498;50.422;14.912;2023-03-23T16:24:51;4.45;;;3.17;;
66626;SDS011;53498;50.422;14.912;2023-03-23T16:27:17;5.45;;;2.70;;
66626;SDS011;53498;50.422;14.912;2023-03-23T16:29:45;5.15;;;3.40;;
66626;SDS011;53498;50.422;14.912;2023-03-23T16:32:12;3.25;;;2.22;;
66626;SDS011;53498;50.422;14.912;2023-03-23T16:34:38;2.42;;;1.42;;
66626;SDS011;53498;50.422;14.912;2023-03-23T16:37:03;1.70;;;1.40;;
66626;SDS011;53498;50.422;14.912;2023-03-23T16:39:31;1.80;;;1.50;;
66626;SDS011;53498;50.422;14.912;2023-03-23T16:41:56;2.95;;;1.60;;
66626;SDS011;53498;50.422;14.912;2023-03-23T16:44:22;1.90;;;1.60;;